Time;durP1;ratioP1;P1;durP2;ratioP2;P2;SDS_P1;SDS_P2;PMS_P1;PMS_P2;Temp;Humidity;BMP_temperature;BMP_pressure;BME280_temperature;BME280_humidity;BME280_pressure;Samples;Min_cycle;Max_cycle;Signal;HPM_P1;HPM_P2
2022/09/14 00:00:30;;;;;;;7.20;2.10;;;;;;;;;;5013672;28;20762;-67
2022/09/14 00:02:56;;;;;;;6.93;2.23;;;;;;;;;;5014304;28;20172;-68
2022/09/14 00:05:22;;;;;;;6.87;2.10;;;;;;;;;;5012596;28;20686;-67
2022/09/14 00:07:49;;;;;;;9.03;1.83;;;;;;;;;;5013722;28;20176;-67
2022/09/14 00:10:15;;;;;;;6.20;2.20;;;;;;;;;;5013786;28;20191;-67
2022/09/14 00:12:41;;;;;;;8.30;2.37;;;;;;;;;;5012492;28;20188;-67
2022/09/14 00:15:07;;;;;;;4.53;1.83;;;;;;;;;;5012352;28;20562;-68
2022/09/14 00:17:33;;;;;;;4.77;1.90;;;;;;;;;;5014058;28;20194;-67
2022/09/14 00:20:01;;;;;;;8.10;2.33;;;;;;;;;;5013862;28;20216;-68
2022/09/14 00:22:27;;;;;;;5.40;1.93;;;;;;;;;;5013778;28;20262;-67
2022/09/14 00:24:53;;;;;;;4.00;2.03;;;;;;;;;;5013513;28;20753;-67
2022/09/14 00:27:18;;;;;;;5.37;2.10;;;;;;;;;;5013480;28;20216;-67
2022/09/14 00:29:47;;;;;;;5.93;2.00;;;;;;;;;;5013708;28;20211;-67
2022/09/14 00:32:13;;;;;;;6.23;2.00;;;;;;;;;;5013538;28;20246;-67
2022/09/14 00:34:39;;;;;;;7.13;2.33;;;;;;;;;;5013490;28;20211;-67
2022/09/14 00:37:05;;;;;;;5.60;2.00;;;;;;;;;;5012264;28;20644;-68
2022/09/14 00:39:31;;;;;;;5.80;2.00;;;;;;;;;;5013802;28;20722;-67
2022/09/14 00:41:57;;;;;;;6.07;2.30;;;;;;;;;;5012195;28;20599;-67
2022/09/14 00:44:23;;;;;;;9.10;2.00;;;;;;;;;;5012205;28;20186;-68
2022/09/14 00:46:51;;;;;;;7.53;2.83;;;;;;;;;;5012082;28;20549;-68
2022/09/14 00:49:23;;;;;;;7.63;2.77;;;;;;;;;;5013247;28;20178;-67
2022/09/14 00:51:52;;;;;;;6.97;2.50;;;;;;;;;;5013925;28;20211;-67
2022/09/14 00:54:18;;;;;;;7.60;2.47;;;;;;;;;;5011997;28;20660;-67
2022/09/14 00:56:46;;;;;;;4.30;2.07;;;;;;;;;;5011972;28;20604;-68
2022/09/14 00:59:15;;;;;;;2.77;1.77;;;;;;;;;;5013184;28;20204;-67
2022/09/14 01:01:41;;;;;;;7.13;2.43;;;;;;;;;;5013677;28;20203;-67
2022/09/14 01:04:07;;;;;;;7.77;2.23;;;;;;;;;;5015906;28;20184;-67
2022/09/14 01:06:43;;;;;;;8.50;2.60;;;;;;;;;;5017577;28;20508;-67
2022/09/14 01:09:17;;;;;;;6.90;2.53;;;;;;;;;;5017287;28;20652;-67
2022/09/14 01:11:50;;;;;;;5.37;2.80;;;;;;;;;;5017115;28;20250;-67
2022/09/14 01:14:20;;;;;;;5.27;2.77;;;;;;;;;;5016930;28;20514;-68
2022/09/14 01:17:06;;;;;;;7.37;2.20;;;;;;;;;;5017110;28;20237;-67
2022/09/14 01:19:51;;;;;;;4.83;2.63;;;;;;;;;;5015493;28;20595;-67
2022/09/14 01:22:33;;;;;;;7.17;2.40;;;;;;;;;;5017094;28;20206;-67
2022/09/14 01:25:20;;;;;;;6.07;2.53;;;;;;;;;;5016848;28;20168;-68
2022/09/14 01:27:48;;;;;;;6.10;2.10;;;;;;;;;;5016979;28;20157;-67
2022/09/14 01:30:18;;;;;;;10.23;2.73;;;;;;;;;;5016790;28;20282;-67
2022/09/14 01:32:50;;;;;;;7.10;2.37;;;;;;;;;;5016762;28;20192;-68
2022/09/14 01:35:22;;;;;;;8.50;2.73;;;;;;;;;;5015175;28;20633;-69
2022/09/14 01:37:54;;;;;;;6.93;2.37;;;;;;;;;;5015174;28;20618;-68
2022/09/14 01:40:24;;;;;;;8.70;2.10;;;;;;;;;;5016579;28;20294;-67
2022/09/14 01:42:59;;;;;;;9.20;2.07;;;;;;;;;;5015179;28;20534;-67
2022/09/14 01:45:27;;;;;;;7.30;2.80;;;;;;;;;;5015002;28;20187;-68
2022/09/14 01:47:54;;;;;;;6.23;2.10;;;;;;;;;;5015327;28;20176;-67
2022/09/14 01:50:24;;;;;;;8.43;2.00;;;;;;;;;;5015022;28;20214;-67
2022/09/14 01:52:52;;;;;;;7.63;2.63;;;;;;;;;;5016675;28;20191;-67
2022/09/14 01:55:22;;;;;;;4.43;2.10;;;;;;;;;;5016107;28;20202;-69
2022/09/14 01:57:51;;;;;;;6.37;3.00;;;;;;;;;;5016008;28;20659;-67
2022/09/14 02:00:18;;;;;;;9.70;2.50;;;;;;;;;;5016212;28;20212;-67
2022/09/14 02:02:48;;;;;;;17.17;2.73;;;;;;;;;;5014798;28;20187;-67
2022/09/14 02:05:20;;;;;;;5.90;2.30;;;;;;;;;;5016451;28;20176;-67
2022/09/14 02:07:46;;;;;;;8.03;3.03;;;;;;;;;;5015233;28;20187;-67
2022/09/14 02:10:13;;;;;;;5.03;2.57;;;;;;;;;;5015757;28;20214;-67
2022/09/14 02:12:40;;;;;;;8.57;2.10;;;;;;;;;;5014879;28;20532;-67
2022/09/14 02:15:08;;;;;;;8.80;2.40;;;;;;;;;;5013927;28;20188;-68
2022/09/14 02:17:34;;;;;;;13.10;2.73;;;;;;;;;;5015792;28;20183;-67
2022/09/14 02:20:01;;;;;;;7.77;2.07;;;;;;;;;;5015899;28;20265;-68
2022/09/14 02:22:28;;;;;;;11.30;2.97;;;;;;;;;;5015609;28;20176;-67
2022/09/14 02:24:54;;;;;;;7.10;3.00;;;;;;;;;;5014509;28;20274;-67
2022/09/14 02:27:20;;;;;;;7.33;2.60;;;;;;;;;;5014360;28;20176;-67
2022/09/14 02:29:46;;;;;;;8.20;2.30;;;;;;;;;;5014223;28;20644;-67
2022/09/14 02:32:35;;;;;;;7.27;2.30;;;;;;;;;;5014224;28;20184;-67
2022/09/14 02:35:15;;;;;;;7.30;2.20;;;;;;;;;;5015714;28;20175;-67
2022/09/14 02:37:47;;;;;;;6.60;2.33;;;;;;;;;;5015597;28;20631;-67
2022/09/14 02:40:17;;;;;;;5.87;2.43;;;;;;;;;;5013877;28;20706;-67
2022/09/14 02:43:07;;;;;;;8.27;2.10;;;;;;;;;;5014182;28;20184;-68
2022/09/14 02:45:43;;;;;;;6.80;2.30;;;;;;;;;;4996479;28;20321;-67
2022/09/14 02:48:12;;;;;;;8.07;2.37;;;;;;;;;;5014037;28;20207;-67
2022/09/14 02:50:59;;;;;;;7.00;1.83;;;;;;;;;;5013825;28;20207;-67
2022/09/14 02:53:33;;;;;;;4.77;1.93;;;;;;;;;;5013693;28;20233;-67
2022/09/14 02:56:04;;;;;;;10.90;2.30;;;;;;;;;;5013840;28;20187;-67
2022/09/14 02:58:35;;;;;;;8.93;2.43;;;;;;;;;;5014928;28;20180;-67
2022/09/14 03:01:01;;;;;;;6.33;2.53;;;;;;;;;;5014751;28;20242;-67
2022/09/14 03:03:27;;;;;;;7.80;3.30;;;;;;;;;;5013616;28;20637;-67
2022/09/14 03:05:55;;;;;;;10.47;3.40;;;;;;;;;;5014773;28;20187;-67
2022/09/14 03:08:21;;;;;;;6.23;2.67;;;;;;;;;;5013419;28;20563;-68
2022/09/14 03:10:47;;;;;;;6.43;2.90;;;;;;;;;;5014773;28;20218;-67
2022/09/14 03:13:12;;;;;;;10.33;2.63;;;;;;;;;;5013445;28;20180;-67
2022/09/14 03:15:39;;;;;;;7.23;2.40;;;;;;;;;;5014550;28;20212;-67
2022/09/14 03:18:06;;;;;;;10.37;2.30;;;;;;;;;;5014883;28;20180;-67
2022/09/14 03:20:32;;;;;;;7.07;2.23;;;;;;;;;;5014336;28;20215;-67
2022/09/14 03:22:58;;;;;;;7.63;2.97;;;;;;;;;;5014551;28;20172;-67
2022/09/14 03:25:26;;;;;;;8.03;2.67;;;;;;;;;;5013618;28;20172;-67
2022/09/14 03:27:53;;;;;;;11.47;2.87;;;;;;;;;;5014638;28;20717;-67
2022/09/14 03:30:19;;;;;;;14.17;2.70;;;;;;;;;;5012959;28;20587;-67
2022/09/14 03:32:45;;;;;;;9.73;2.80;;;;;;;;;;5014222;28;20192;-67
2022/09/14 03:35:12;;;;;;;9.13;3.10;;;;;;;;;;5013030;28;20251;-67
2022/09/14 03:37:38;;;;;;;14.90;3.20;;;;;;;;;;5014320;28;20182;-67
2022/09/14 03:40:05;;;;;;;7.47;2.40;;;;;;;;;;5012651;28;20215;-67
2022/09/14 03:42:31;;;;;;;6.93;2.50;;;;;;;;;;5014084;28;20622;-67
2022/09/14 03:44:57;;;;;;;5.97;2.30;;;;;;;;;;5017009;28;20176;-67
2022/09/14 03:47:23;;;;;;;6.50;2.97;;;;;;;;;;5019516;28;20182;-67
2022/09/14 03:49:49;;;;;;;8.30;2.37;;;;;;;;;;5018136;28;20203;-67
2022/09/14 03:52:15;;;;;;;6.70;2.37;;;;;;;;;;5020183;28;20258;-68
2022/09/14 03:54:41;;;;;;;4.63;2.07;;;;;;;;;;5019778;28;20245;-68
2022/09/14 03:57:08;;;;;;;7.53;2.50;;;;;;;;;;5016351;28;20723;-67
2022/09/14 03:59:34;;;;;;;8.47;2.40;;;;;;;;;;5013791;28;20203;-67
2022/09/14 04:02:00;;;;;;;9.30;2.13;;;;;;;;;;5013638;28;20633;-67
2022/09/14 04:04:26;;;;;;;7.03;2.17;;;;;;;;;;5014567;28;20180;-67
2022/09/14 04:06:52;;;;;;;6.90;2.10;;;;;;;;;;5014403;28;20230;-67
2022/09/14 04:09:18;;;;;;;5.13;2.20;;;;;;;;;;5013625;28;20211;-67
2022/09/14 04:11:45;;;;;;;6.90;2.07;;;;;;;;;;5014006;28;20203;-68
2022/09/14 04:14:11;;;;;;;11.43;2.70;;;;;;;;;;5013920;28;20395;-68
2022/09/14 04:16:38;;;;;;;15.97;2.43;;;;;;;;;;5012291;28;20202;-67
2022/09/14 04:19:04;;;;;;;9.33;2.33;;;;;;;;;;5013659;28;20677;-67
2022/09/14 04:21:30;;;;;;;8.07;1.97;;;;;;;;;;5013477;28;20231;-68
2022/09/14 04:23:56;;;;;;;8.30;2.70;;;;;;;;;;5012286;28;20179;-67
2022/09/14 04:26:24;;;;;;;4.73;2.20;;;;;;;;;;5013539;28;20616;-68
2022/09/14 04:28:50;;;;;;;8.10;2.60;;;;;;;;;;5013290;28;20535;-67
2022/09/14 04:31:17;;;;;;;11.53;2.53;;;;;;;;;;5012961;28;20212;-68
2022/09/14 04:33:43;;;;;;;7.23;2.83;;;;;;;;;;5013399;28;20180;-68
2022/09/14 04:36:10;;;;;;;6.97;2.67;;;;;;;;;;5012159;28;20176;-68
2022/09/14 04:38:37;;;;;;;8.70;2.87;;;;;;;;;;5015973;28;20192;-68
2022/09/14 04:41:08;;;;;;;4.07;2.20;;;;;;;;;;5017262;28;20215;-68
2022/09/14 04:43:34;;;;;;;9.07;2.97;;;;;;;;;;5018013;28;20168;-68
2022/09/14 04:46:07;;;;;;;5.60;2.00;;;;;;;;;;5016145;28;20559;-69
2022/09/14 04:48:34;;;;;;;6.50;2.53;;;;;;;;;;5017582;28;20254;-68
2022/09/14 04:51:04;;;;;;;7.33;2.40;;;;;;;;;;5015988;28;20706;-68
2022/09/14 04:53:30;;;;;;;7.47;2.30;;;;;;;;;;5015957;28;20679;-67
2022/09/14 04:56:02;;;;;;;9.13;2.80;;;;;;;;;;5015889;28;20702;-67
2022/09/14 04:58:28;;;;;;;6.27;2.87;;;;;;;;;;5015881;28;20183;-68
2022/09/14 05:01:01;;;;;;;8.90;2.80;;;;;;;;;;5015592;28;20219;-68
2022/09/14 05:03:27;;;;;;;7.10;2.60;;;;;;;;;;5015714;28;20682;-68
2022/09/14 05:05:53;;;;;;;9.27;2.40;;;;;;;;;;5015752;28;20207;-68
2022/09/14 05:08:19;;;;;;;11.57;3.03;;;;;;;;;;5017178;28;20253;-67
2022/09/14 05:10:45;;;;;;;10.20;2.60;;;;;;;;;;5016762;28;20200;-68
2022/09/14 05:13:13;;;;;;;5.03;2.67;;;;;;;;;;5016953;28;20191;-68
2022/09/14 05:15:40;;;;;;;9.10;2.67;;;;;;;;;;5016838;28;20623;-67
2022/09/14 05:18:06;;;;;;;13.10;3.50;;;;;;;;;;5018119;28;20175;-67
2022/09/14 05:20:33;;;;;;;9.90;3.17;;;;;;;;;;5016650;28;20225;-67
2022/09/14 05:22:59;;;;;;;8.27;2.77;;;;;;;;;;5016744;28;20180;-67
2022/09/14 05:25:26;;;;;;;7.23;3.00;;;;;;;;;;5017115;28;20243;-68
2022/09/14 05:27:52;;;;;;;7.83;3.30;;;;;;;;;;5015410;28;20176;-68
2022/09/14 05:30:18;;;;;;;5.90;3.60;;;;;;;;;;5016478;28;20242;-67
2022/09/14 05:32:44;;;;;;;9.23;3.77;;;;;;;;;;5016770;28;20191;-67
2022/09/14 05:35:10;;;;;;;13.43;4.13;;;;;;;;;;5016089;28;20649;-67
2022/09/14 05:37:36;;;;;;;7.10;2.90;;;;;;;;;;5016493;28;20691;-67
2022/09/14 05:40:03;;;;;;;7.83;2.70;;;;;;;;;;5016227;28;20295;-67
2022/09/14 05:42:29;;;;;;;9.73;3.10;;;;;;;;;;5015132;28;20234;-67
2022/09/14 05:44:55;;;;;;;10.10;4.10;;;;;;;;;;5016606;28;20580;-67
2022/09/14 05:47:21;;;;;;;11.17;4.00;;;;;;;;;;5016326;28;20191;-68
2022/09/14 05:49:47;;;;;;;9.83;3.43;;;;;;;;;;5013855;28;20554;-67
2022/09/14 05:52:13;;;;;;;5.73;3.90;;;;;;;;;;5016499;28;20180;-67
2022/09/14 05:54:39;;;;;;;9.67;3.83;;;;;;;;;;5014867;28;20194;-67
2022/09/14 05:57:05;;;;;;;13.30;3.93;;;;;;;;;;5016166;28;20211;-68
2022/09/14 05:59:31;;;;;;;12.93;4.27;;;;;;;;;;5015884;28;20191;-67
2022/09/14 06:01:57;;;;;;;10.83;3.90;;;;;;;;;;5016350;28;20255;-67
2022/09/14 06:04:23;;;;;;;16.00;4.70;;;;;;;;;;5015930;28;20180;-67
2022/09/14 06:06:49;;;;;;;10.53;4.30;;;;;;;;;;5016226;28;20183;-67
2022/09/14 06:09:15;;;;;;;10.53;5.07;;;;;;;;;;5014657;28;20176;-67
2022/09/14 06:11:41;;;;;;;9.40;4.30;;;;;;;;;;5015883;28;20226;-68
2022/09/14 06:14:07;;;;;;;9.93;5.07;;;;;;;;;;5016062;28;20180;-68
2022/09/14 06:16:34;;;;;;;12.83;4.60;;;;;;;;;;5014563;28;20207;-69
2022/09/14 06:19:00;;;;;;;11.20;4.73;;;;;;;;;;5014505;28;20257;-67
2022/09/14 06:21:31;;;;;;;15.10;5.37;;;;;;;;;;5014412;28;20215;-68
2022/09/14 06:23:57;;;;;;;9.60;4.90;;;;;;;;;;5015599;28;20234;-68
2022/09/14 06:26:23;;;;;;;12.07;4.53;;;;;;;;;;5016151;28;20226;-68
2022/09/14 06:28:49;;;;;;;14.43;5.43;;;;;;;;;;5016107;28;20176;-67
2022/09/14 06:31:16;;;;;;;14.73;5.40;;;;;;;;;;5015788;28;20246;-68
2022/09/14 06:33:45;;;;;;;13.23;5.73;;;;;;;;;;5015780;28;20188;-68
2022/09/14 06:36:13;;;;;;;16.60;5.37;;;;;;;;;;5014176;28;20192;-68
2022/09/14 06:38:39;;;;;;;16.47;5.83;;;;;;;;;;5015414;28;20628;-68
2022/09/14 06:41:07;;;;;;;15.03;6.40;;;;;;;;;;5015303;28;20582;-68
2022/09/14 06:43:35;;;;;;;12.63;6.13;;;;;;;;;;5015425;28;20172;-68
2022/09/14 06:46:06;;;;;;;11.63;5.97;;;;;;;;;;5013887;28;20183;-68
2022/09/14 06:48:33;;;;;;;15.33;7.03;;;;;;;;;;5015079;28;20180;-68
2022/09/14 06:50:59;;;;;;;16.93;7.00;;;;;;;;;;5014945;28;20683;-68
2022/09/14 06:53:25;;;;;;;13.57;6.97;;;;;;;;;;5013681;28;20190;-68
2022/09/14 06:55:51;;;;;;;14.57;7.00;;;;;;;;;;5014005;28;20690;-68
2022/09/14 06:58:19;;;;;;;13.13;6.37;;;;;;;;;;5014963;28;20180;-68
2022/09/14 07:00:45;;;;;;;12.93;7.17;;;;;;;;;;5014593;28;20216;-68
2022/09/14 07:03:11;;;;;;;18.80;7.63;;;;;;;;;;5013701;28;20202;-68
2022/09/14 07:05:37;;;;;;;12.30;6.20;;;;;;;;;;5013749;28;20183;-68
2022/09/14 07:08:03;;;;;;;10.50;6.20;;;;;;;;;;5013504;28;20203;-67
2022/09/14 07:10:29;;;;;;;15.10;6.30;;;;;;;;;;5014618;28;20207;-67
2022/09/14 07:12:55;;;;;;;15.03;8.67;;;;;;;;;;5014852;28;20180;-67
2022/09/14 07:15:21;;;;;;;18.63;8.30;;;;;;;;;;5015186;28;20242;-67
2022/09/14 07:17:47;;;;;;;16.03;7.20;;;;;;;;;;5013370;28;20276;-68
2022/09/14 07:20:14;;;;;;;10.50;6.40;;;;;;;;;;5014348;28;20287;-67
2022/09/14 07:22:40;;;;;;;11.90;6.30;;;;;;;;;;5014843;28;20569;-67
2022/09/14 07:25:06;;;;;;;13.70;6.33;;;;;;;;;;5013135;28;20641;-67
2022/09/14 07:27:33;;;;;;;14.63;6.07;;;;;;;;;;5014348;28;20259;-67
2022/09/14 07:29:58;;;;;;;15.83;6.70;;;;;;;;;;5014910;28;20210;-67
2022/09/14 07:32:24;;;;;;;11.70;5.97;;;;;;;;;;5014286;28;20180;-67
2022/09/14 07:34:50;;;;;;;17.03;5.73;;;;;;;;;;5014228;28;20241;-67
2022/09/14 07:37:16;;;;;;;10.40;5.90;;;;;;;;;;5013182;28;20192;-67
2022/09/14 07:39:42;;;;;;;12.77;5.83;;;;;;;;;;5013956;28;20199;-68
2022/09/14 07:42:08;;;;;;;12.87;6.70;;;;;;;;;;5014083;28;20179;-67
2022/09/14 07:44:34;;;;;;;18.50;6.40;;;;;;;;;;5013994;28;20180;-69
2022/09/14 07:47:00;;;;;;;12.30;6.27;;;;;;;;;;5014313;28;20542;-68
2022/09/14 07:49:26;;;;;;;17.87;7.03;;;;;;;;;;5013882;28;20695;-67
2022/09/14 07:51:52;;;;;;;14.03;8.30;;;;;;;;;;5013903;28;20191;-68
2022/09/14 07:54:19;;;;;;;14.50;8.87;;;;;;;;;;5013895;28;20211;-68
2022/09/14 07:56:45;;;;;;;17.20;9.37;;;;;;;;;;5012494;28;20184;-68
2022/09/14 07:59:11;;;;;;;13.97;9.73;;;;;;;;;;5012456;28;20499;-67
2022/09/14 08:01:37;;;;;;;16.70;11.23;;;;;;;;;;5012200;28;20314;-68
2022/09/14 08:04:04;;;;;;;20.37;12.00;;;;;;;;;;5013806;28;20211;-68
2022/09/14 08:06:30;;;;;;;16.63;12.40;;;;;;;;;;5013674;28;20176;-68
2022/09/14 08:08:56;;;;;;;16.77;12.40;;;;;;;;;;5012291;28;20651;-67
2022/09/14 08:11:25;;;;;;;16.83;11.10;;;;;;;;;;5013011;28;20208;-68
2022/09/14 08:13:54;;;;;;;19.63;10.97;;;;;;;;;;5012323;28;20717;-68
2022/09/14 08:16:20;;;;;;;15.47;8.33;;;;;;;;;;5012302;28;20179;-67
2022/09/14 08:18:47;;;;;;;16.63;8.70;;;;;;;;;;5012304;28;20606;-68
2022/09/14 08:21:14;;;;;;;13.07;6.47;;;;;;;;;;5013286;28;20207;-68
2022/09/14 08:23:41;;;;;;;13.13;7.13;;;;;;;;;;5013526;28;20187;-68
2022/09/14 08:26:15;;;;;;;10.80;7.23;;;;;;;;;;5013700;28;20640;-68
2022/09/14 08:28:42;;;;;;;11.77;6.73;;;;;;;;;;5013951;28;20183;-68
2022/09/14 08:31:12;;;;;;;13.73;7.23;;;;;;;;;;5012065;28;20211;-68
2022/09/14 08:33:39;;;;;;;11.97;6.87;;;;;;;;;;5013570;28;20184;-68
2022/09/14 08:36:07;;;;;;;13.63;7.60;;;;;;;;;;5011839;28;20679;-67
2022/09/14 08:38:33;;;;;;;14.00;7.80;;;;;;;;;;5013392;28;20668;-68
2022/09/14 08:41:05;;;;;;;13.23;8.70;;;;;;;;;;5013449;28;20708;-68
2022/09/14 08:43:31;;;;;;;12.83;8.93;;;;;;;;;;5013917;28;20160;-67
2022/09/14 08:46:01;;;;;;;15.53;9.93;;;;;;;;;;5013502;28;20186;-67
2022/09/14 08:48:31;;;;;;;14.07;9.50;;;;;;;;;;5012030;28;20180;-68
2022/09/14 08:50:57;;;;;;;14.37;10.13;;;;;;;;;;5013277;28;20226;-67
2022/09/14 08:53:23;;;;;;;13.43;10.13;;;;;;;;;;5013242;28;20175;-68
2022/09/14 08:56:01;;;;;;;18.07;9.87;;;;;;;;;;5011932;28;20274;-68
2022/09/14 08:58:34;;;;;;;14.90;9.50;;;;;;;;;;5013354;28;20635;-68
2022/09/14 09:01:20;;;;;;;13.20;9.90;;;;;;;;;;5013032;28;20241;-67
2022/09/14 09:04:03;;;;;;;21.20;8.50;;;;;;;;;;5013245;28;20617;-68
2022/09/14 09:06:32;;;;;;;15.47;6.93;;;;;;;;;;5013775;28;20171;-68
2022/09/14 09:09:07;;;;;;;11.90;6.00;;;;;;;;;;5011984;28;20187;-68
2022/09/14 09:11:36;;;;;;;9.73;6.53;;;;;;;;;;5013349;28;20290;-68
2022/09/14 09:14:05;;;;;;;9.63;5.67;;;;;;;;;;5013983;28;20176;-68
2022/09/14 09:16:31;;;;;;;8.60;5.20;;;;;;;;;;5014116;28;20191;-67
2022/09/14 09:18:59;;;;;;;8.40;5.10;;;;;;;;;;5014517;28;20214;-69
2022/09/14 09:21:31;;;;;;;8.30;5.80;;;;;;;;;;5012901;28;20212;-68
2022/09/14 09:24:21;;;;;;;7.43;5.30;;;;;;;;;;5015820;28;20176;-68
2022/09/14 09:26:47;;;;;;;8.27;5.30;;;;;;;;;;5015561;28;20201;-68
2022/09/14 09:29:13;;;;;;;10.80;6.53;;;;;;;;;;5016697;28;20255;-69
2022/09/14 09:31:43;;;;;;;8.70;6.10;;;;;;;;;;5016618;28;20214;-68
2022/09/14 09:34:11;;;;;;;12.80;6.57;;;;;;;;;;5016566;28;20180;-68
2022/09/14 09:36:39;;;;;;;13.20;7.07;;;;;;;;;;5016403;28;20551;-68
2022/09/14 09:39:05;;;;;;;7.90;6.17;;;;;;;;;;5015068;28;20183;-69
2022/09/14 09:41:39;;;;;;;10.67;7.00;;;;;;;;;;5016247;28;20212;-68
2022/09/14 09:44:08;;;;;;;10.43;7.20;;;;;;;;;;5015436;28;20183;-72
2022/09/14 09:46:35;;;;;;;13.83;7.10;;;;;;;;;;5017265;28;20175;-70
2022/09/14 09:49:14;;;;;;;11.33;5.83;;;;;;;;;;5015175;28;20270;-67
2022/09/14 09:51:40;;;;;;;14.90;6.80;;;;;;;;;;5015118;28;20211;-69
2022/09/14 09:54:11;;;;;;;12.37;5.67;;;;;;;;;;5016581;28;20183;-68
2022/09/14 09:56:39;;;;;;;10.50;5.57;;;;;;;;;;5014965;28;20180;-68
2022/09/14 09:59:28;;;;;;;15.13;5.83;;;;;;;;;;5016609;28;20267;-67
2022/09/14 10:01:55;;;;;;;9.50;6.40;;;;;;;;;;5011034;28;20210;-67
2022/09/14 10:04:27;;;;;;;10.50;6.80;;;;;;;;;;5016121;28;20670;-67
2022/09/14 10:06:53;;;;;;;15.97;6.57;;;;;;;;;;5016205;28;20169;-67
2022/09/14 10:09:19;;;;;;;11.93;6.07;;;;;;;;;;5014580;28;20270;-67
2022/09/14 10:11:47;;;;;;;9.87;6.07;;;;;;;;;;5015751;28;20238;-67
2022/09/14 10:14:22;;;;;;;8.87;5.30;;;;;;;;;;5014462;28;20269;-67
2022/09/14 10:16:48;;;;;;;11.27;5.63;;;;;;;;;;5014431;28;20175;-67
2022/09/14 10:19:15;;;;;;;10.33;6.30;;;;;;;;;;5015976;28;20180;-67
2022/09/14 10:21:59;;;;;;;8.67;6.70;;;;;;;;;;5015515;28;20566;-67
2022/09/14 10:24:26;;;;;;;10.73;4.10;;;;;;;;;;5015590;28;20591;-67
2022/09/14 10:26:52;;;;;;;6.67;3.67;;;;;;;;;;5015801;28;20250;-67
2022/09/14 10:29:18;;;;;;;10.13;4.07;;;;;;;;;;5015493;28;20314;-67
2022/09/14 10:31:45;;;;;;;6.27;3.87;;;;;;;;;;5015549;28;20211;-67
2022/09/14 10:34:13;;;;;;;6.43;3.80;;;;;;;;;;5015063;28;20176;-68
2022/09/14 10:36:46;;;;;;;9.33;4.23;;;;;;;;;;5015088;28;20273;-68
2022/09/14 10:39:25;;;;;;;9.93;3.73;;;;;;;;;;5015379;28;20164;-67
2022/09/14 10:42:06;;;;;;;7.17;3.50;;;;;;;;;;5013862;28;20199;-68
2022/09/14 10:44:32;;;;;;;5.93;4.30;;;;;;;;;;5013882;28;20655;-68
2022/09/14 10:47:04;;;;;;;11.13;5.00;;;;;;;;;;5013839;28;20179;-67
2022/09/14 10:49:49;;;;;;;9.47;4.53;;;;;;;;;;5015062;28;20230;-68
2022/09/14 10:52:23;;;;;;;7.73;4.40;;;;;;;;;;5015002;28;20238;-67
2022/09/14 10:54:57;;;;;;;7.20;4.07;;;;;;;;;;5015060;28;20172;-66
2022/09/14 10:57:26;;;;;;;7.37;3.70;;;;;;;;;;5015289;28;20214;-66
2022/09/14 10:59:58;;;;;;;7.97;4.60;;;;;;;;;;5015217;28;20223;-66
2022/09/14 11:02:43;;;;;;;8.03;5.17;;;;;;;;;;5015626;28;20176;-67
2022/09/14 11:05:21;;;;;;;8.30;4.50;;;;;;;;;;5015650;28;20164;-67
2022/09/14 11:08:04;;;;;;;6.90;4.60;;;;;;;;;;5015568;28;20191;-67
2022/09/14 11:10:33;;;;;;;12.07;5.30;;;;;;;;;;5015248;28;20210;-67
2022/09/14 11:13:26;;;;;;;9.03;5.20;;;;;;;;;;5014985;28;20175;-67
2022/09/14 11:16:09;;;;;;;8.83;5.13;;;;;;;;;;5014808;28;20175;-67
2022/09/14 11:18:57;;;;;;;11.83;5.80;;;;;;;;;;5014635;28;20179;-67
2022/09/14 11:21:32;;;;;;;10.27;4.70;;;;;;;;;;5014404;28;20273;-67
2022/09/14 11:24:06;;;;;;;8.43;4.57;;;;;;;;;;5014641;28;20288;-67
2022/09/14 11:26:34;;;;;;;6.93;4.17;;;;;;;;;;5014650;28;20688;-67
2022/09/14 11:29:16;;;;;;;8.63;5.33;;;;;;;;;;5014270;28;20180;-67
2022/09/14 11:31:51;;;;;;;5.77;4.50;;;;;;;;;;5014218;28;20254;-67
2022/09/14 11:34:27;;;;;;;7.60;4.67;;;;;;;;;;5014258;28;20179;-67
2022/09/14 11:36:56;;;;;;;7.10;4.40;;;;;;;;;;5014474;28;20270;-67
2022/09/14 11:39:25;;;;;;;9.10;5.10;;;;;;;;;;5014355;28;20191;-67
2022/09/14 11:41:51;;;;;;;7.10;5.00;;;;;;;;;;5014239;28;20222;-67
2022/09/14 11:44:26;;;;;;;5.67;4.30;;;;;;;;;;5014129;28;20263;-68
2022/09/14 11:46:57;;;;;;;9.77;4.90;;;;;;;;;;5013333;28;20599;-67
2022/09/14 11:49:30;;;;;;;7.57;4.47;;;;;;;;;;5014595;28;20222;-65
2022/09/14 11:51:58;;;;;;;8.00;4.80;;;;;;;;;;5014278;28;20172;-68
2022/09/14 11:54:24;;;;;;;5.73;4.47;;;;;;;;;;5013971;28;20180;-67
2022/09/14 11:56:52;;;;;;;6.97;4.60;;;;;;;;;;5014187;28;20180;-67
2022/09/14 11:59:33;;;;;;;6.90;5.30;;;;;;;;;;5014114;28;20199;-67
2022/09/14 12:02:19;;;;;;;7.50;5.17;;;;;;;;;;5014131;28;20179;-67
2022/09/14 12:05:05;;;;;;;7.33;4.50;;;;;;;;;;5012011;28;20652;-67
2022/09/14 12:07:46;;;;;;;9.20;5.43;;;;;;;;;;5013757;28;20210;-67
2022/09/14 12:10:15;;;;;;;9.33;5.50;;;;;;;;;;5013956;28;20200;-67
2022/09/14 12:12:41;;;;;;;7.37;4.57;;;;;;;;;;5013592;28;20179;-67
2022/09/14 12:15:13;;;;;;;7.37;4.60;;;;;;;;;;5013687;28;20175;-67
2022/09/14 12:17:40;;;;;;;5.97;4.80;;;;;;;;;;5013635;28;20255;-67
2022/09/14 12:20:25;;;;;;;8.53;4.20;;;;;;;;;;5013683;28;20269;-67
2022/09/14 12:22:51;;;;;;;5.30;4.37;;;;;;;;;;5013903;28;20207;-68
2022/09/14 12:25:18;;;;;;;9.47;5.43;;;;;;;;;;5013567;28;20245;-67
2022/09/14 12:27:46;;;;;;;7.70;5.07;;;;;;;;;;5013869;28;20179;-68
2022/09/14 12:30:32;;;;;;;8.70;5.40;;;;;;;;;;5013859;28;20211;-67
2022/09/14 12:32:58;;;;;;;4.60;4.17;;;;;;;;;;5013732;28;20543;-67
2022/09/14 12:35:39;;;;;;;4.63;3.87;;;;;;;;;;5013859;28;20188;-67
2022/09/14 12:38:24;;;;;;;7.90;4.30;;;;;;;;;;5013359;28;20311;-67
2022/09/14 12:40:50;;;;;;;6.93;3.60;;;;;;;;;;5013468;28;20623;-68
2022/09/14 12:43:34;;;;;;;4.23;3.10;;;;;;;;;;5013383;28;20199;-67
2022/09/14 12:46:01;;;;;;;3.73;2.40;;;;;;;;;;5013476;28;20660;-68
2022/09/14 12:48:49;;;;;;;4.63;2.50;;;;;;;;;;5013482;28;20180;-67
2022/09/14 12:54:13;;;;;;;2.67;1.83;;;;;;;;;;5013624;28;20187;-69
2022/09/14 12:56:41;;;;;;;2.87;2.10;;;;;;;;;;4992880;28;20691;-68
2022/09/14 12:59:13;;;;;;;3.67;2.00;;;;;;;;;;5016532;28;20211;-68
2022/09/14 13:01:47;;;;;;;3.03;1.97;;;;;;;;;;5017029;28;20219;-68
2022/09/14 13:04:15;;;;;;;3.43;1.90;;;;;;;;;;5017199;28;20550;-68
2022/09/14 13:06:44;;;;;;;2.43;2.20;;;;;;;;;;5015771;28;20183;-68
2022/09/14 13:09:21;;;;;;;3.00;2.30;;;;;;;;;;5015616;28;20263;-68
2022/09/14 13:11:48;;;;;;;5.53;2.40;;;;;;;;;;5016913;28;20200;-68
2022/09/14 13:14:18;;;;;;;3.03;2.30;;;;;;;;;;5016906;28;20180;-68
2022/09/14 13:16:45;;;;;;;3.67;2.30;;;;;;;;;;5016866;28;20262;-68
2022/09/14 13:19:22;;;;;;;4.97;2.37;;;;;;;;;;5017095;28;20207;-68
2022/09/14 13:21:49;;;;;;;3.43;2.60;;;;;;;;;;5016904;28;20252;-68
2022/09/14 13:24:18;;;;;;;3.97;2.77;;;;;;;;;;5017052;28;20265;-68
2022/09/14 13:26:44;;;;;;;4.63;3.40;;;;;;;;;;5016718;28;20203;-68
2022/09/14 13:29:10;;;;;;;5.57;3.50;;;;;;;;;;5016739;28;20211;-68
2022/09/14 13:31:38;;;;;;;3.57;2.80;;;;;;;;;;5016568;28;20211;-68
2022/09/14 13:34:04;;;;;;;3.67;1.83;;;;;;;;;;5016823;28;20188;-68
2022/09/14 13:36:32;;;;;;;2.10;1.53;;;;;;;;;;5016537;28;20679;-68
2022/09/14 13:39:00;;;;;;;3.47;1.50;;;;;;;;;;5016344;28;20222;-68
2022/09/14 13:41:26;;;;;;;5.17;1.80;;;;;;;;;;5016844;28;20219;-68
2022/09/14 13:43:53;;;;;;;1.60;1.50;;;;;;;;;;5016848;28;20264;-68
2022/09/14 13:46:20;;;;;;;2.30;1.73;;;;;;;;;;5016506;28;20194;-69
2022/09/14 13:48:46;;;;;;;2.40;1.80;;;;;;;;;;5016226;28;20176;-69
2022/09/14 13:51:13;;;;;;;4.50;1.80;;;;;;;;;;5016236;28;20203;-68
2022/09/14 13:53:49;;;;;;;3.13;1.80;;;;;;;;;;5016657;28;20218;-68
2022/09/14 13:56:26;;;;;;;3.33;1.90;;;;;;;;;;5016558;28;20199;-68
2022/09/14 13:59:08;;;;;;;3.33;2.27;;;;;;;;;;5016316;28;20199;-67
2022/09/14 14:01:38;;;;;;;3.10;1.97;;;;;;;;;;5015925;28;20219;-68
2022/09/14 14:04:04;;;;;;;2.33;2.13;;;;;;;;;;5016530;28;20171;-68
2022/09/14 14:06:33;;;;;;;2.63;2.20;;;;;;;;;;5016063;28;20205;-68
2022/09/14 14:09:07;;;;;;;4.33;2.23;;;;;;;;;;5015678;28;20259;-68
2022/09/14 14:11:40;;;;;;;5.37;2.50;;;;;;;;;;5015402;28;20191;-68
2022/09/14 14:14:09;;;;;;;3.87;2.40;;;;;;;;;;5016011;28;20179;-69
2022/09/14 14:16:35;;;;;;;4.73;2.50;;;;;;;;;;5015856;28;20187;-69
2022/09/14 14:19:01;;;;;;;3.53;2.00;;;;;;;;;;5015866;28;20203;-68
2022/09/14 14:21:30;;;;;;;3.27;2.00;;;;;;;;;;5015777;28;20334;-68
2022/09/14 14:24:14;;;;;;;4.50;2.17;;;;;;;;;;5015691;28;20172;-68
2022/09/14 14:26:47;;;;;;;7.50;2.33;;;;;;;;;;5015744;28;20175;-69
2022/09/14 14:29:15;;;;;;;3.37;2.00;;;;;;;;;;5015597;28;20183;-68
2022/09/14 14:31:41;;;;;;;3.57;2.20;;;;;;;;;;5015435;28;20574;-68
2022/09/14 14:34:17;;;;;;;2.77;2.20;;;;;;;;;;5015630;28;20186;-68
2022/09/14 14:36:43;;;;;;;4.87;2.27;;;;;;;;;;5015384;28;20210;-68
2022/09/14 14:39:09;;;;;;;6.60;2.70;;;;;;;;;;5015437;28;20314;-68
2022/09/14 14:41:36;;;;;;;3.27;1.87;;;;;;;;;;5015179;28;20242;-67
2022/09/14 14:44:02;;;;;;;3.90;2.03;;;;;;;;;;5015421;28;20648;-68
2022/09/14 14:46:29;;;;;;;4.37;2.07;;;;;;;;;;5015407;28;20183;-68
2022/09/14 14:48:55;;;;;;;4.10;2.13;;;;;;;;;;5015235;28;20182;-68
2022/09/14 14:51:21;;;;;;;4.77;2.53;;;;;;;;;;5015099;28;20282;-68
2022/09/14 14:53:47;;;;;;;4.37;2.37;;;;;;;;;;5013911;28;20194;-68